sensor_id;sensor_type;location;lat;lon;timestamp;P1;durP1;ratioP1;P2;durP2;ratioP2
357;SDS011;167;47.558;7.602;2023-12-20T00:01:36;6.60;;;6.00;;
357;SDS011;167;47.558;7.602;2023-12-20T00:04:02;6.10;;;5.50;;
357;SDS011;167;47.558;7.602;2023-12-20T00:06:29;5.90;;;5.40;;
357;SDS011;167;47.558;7.602;2023-12-20T00:08:55;5.80;;;5.30;;
357;SDS011;167;47.558;7.602;2023-12-20T00:11:22;6.77;;;6.17;;
357;SDS011;167;47.558;7.602;2023-12-20T00:13:48;5.50;;;5.10;;
357;SDS011;167;47.558;7.602;2023-12-20T00:16:14;7.17;;;6.47;;
357;SDS011;167;47.558;7.602;2023-12-20T00:18:40;6.00;;;5.53;;
357;SDS011;167;47.558;7.602;2023-12-20T00:21:06;6.83;;;6.00;;
357;SDS011;167;47.558;7.602;2023-12-20T00:23:32;6.33;;;5.83;;
357;SDS011;167;47.558;7.602;2023-12-20T00:25:58;6.63;;;6.10;;
357;SDS011;167;47.558;7.602;2023-12-20T00:28:24;6.00;;;5.50;;
357;SDS011;167;47.558;7.602;2023-12-20T00:30:50;6.00;;;5.50;;
357;SDS011;167;47.558;7.602;2023-12-20T00:33:16;6.80;;;6.00;;
357;SDS011;167;47.558;7.602;2023-12-20T00:35:42;6.93;;;6.33;;
357;SDS011;167;47.558;7.602;2023-12-20T00:38:08;6.30;;;5.80;;
357;SDS011;167;47.558;7.602;2023-12-20T00:40:35;6.87;;;6.27;;
357;SDS011;167;47.558;7.602;2023-12-20T00:43:01;6.40;;;5.83;;
357;SDS011;167;47.558;7.602;2023-12-20T00:45:27;7.13;;;6.43;;
357;SDS011;167;47.558;7.602;2023-12-20T00:47:53;5.63;;;5.17;;
357;SDS011;167;47.558;7.602;2023-12-20T00:50:19;5.90;;;5.13;;
357;SDS011;167;47.558;7.602;2023-12-20T00:52:46;6.07;;;5.57;;
357;SDS011;167;47.558;7.602;2023-12-20T00:55:12;5.53;;;5.03;;
357;SDS011;167;47.558;7.602;2023-12-20T00:57:38;5.83;;;5.20;;
357;SDS011;167;47.558;7.602;2023-12-20T01:00:05;5.40;;;4.90;;
357;SDS011;167;47.558;7.602;2023-12-20T01:02:31;5.70;;;5.20;;
357;SDS011;167;47.558;7.602;2023-12-20T01:04:57;5.97;;;5.47;;
357;SDS011;167;47.558;7.602;2023-12-20T01:07:23;5.43;;;4.97;;
357;SDS011;167;47.558;7.602;2023-12-20T01:09:49;5.33;;;4.93;;
357;SDS011;167;47.558;7.602;2023-12-20T01:12:15;5.70;;;5.20;;
357;SDS011;167;47.558;7.602;2023-12-20T01:14:41;6.13;;;5.60;;
357;SDS011;167;47.558;7.602;2023-12-20T01:17:07;6.00;;;5.53;;
357;SDS011;167;47.558;7.602;2023-12-20T01:19:33;4.73;;;4.43;;
357;SDS011;167;47.558;7.602;2023-12-20T01:21:59;6.03;;;5.53;;
357;SDS011;167;47.558;7.602;2023-12-20T01:24:25;5.43;;;5.10;;
357;SDS011;167;47.558;7.602;2023-12-20T01:26:51;5.17;;;4.77;;
357;SDS011;167;47.558;7.602;2023-12-20T01:29:17;5.33;;;4.83;;
357;SDS011;167;47.558;7.602;2023-12-20T01:31:43;5.43;;;4.93;;
357;SDS011;167;47.558;7.602;2023-12-20T01:34:09;7.07;;;6.47;;
357;SDS011;167;47.558;7.602;2023-12-20T01:36:35;6.40;;;5.80;;
357;SDS011;167;47.558;7.602;2023-12-20T01:39:01;6.30;;;5.70;;
357;SDS011;167;47.558;7.602;2023-12-20T01:41:27;6.57;;;6.03;;
357;SDS011;167;47.558;7.602;2023-12-20T01:43:53;6.23;;;5.67;;
357;SDS011;167;47.558;7.602;2023-12-20T01:46:19;5.70;;;5.20;;
357;SDS011;167;47.558;7.602;2023-12-20T01:48:46;5.57;;;5.10;;
357;SDS011;167;47.558;7.602;2023-12-20T01:51:12;5.60;;;5.20;;
357;SDS011;167;47.558;7.602;2023-12-20T01:53:38;4.83;;;4.33;;
357;SDS011;167;47.558;7.602;2023-12-20T01:56:05;5.67;;;5.17;;
357;SDS011;167;47.558;7.602;2023-12-20T01:58:31;5.90;;;5.40;;
357;SDS011;167;47.558;7.602;2023-12-20T02:00:57;5.37;;;4.87;;
357;SDS011;167;47.558;7.602;2023-12-20T02:03:24;6.20;;;5.70;;
357;SDS011;167;47.558;7.602;2023-12-20T02:05:50;5.27;;;4.87;;
357;SDS011;167;47.558;7.602;2023-12-20T02:08:16;5.63;;;5.20;;
357;SDS011;167;47.558;7.602;2023-12-20T02:10:42;5.40;;;5.00;;
357;SDS011;167;47.558;7.602;2023-12-20T02:13:08;5.90;;;5.30;;
357;SDS011;167;47.558;7.602;2023-12-20T02:15:34;7.20;;;5.90;;
357;SDS011;167;47.558;7.602;2023-12-20T02:18:02;6.10;;;5.60;;
357;SDS011;167;47.558;7.602;2023-12-20T02:20:28;5.53;;;5.03;;
357;SDS011;167;47.558;7.602;2023-12-20T02:22:54;5.30;;;4.80;;
357;SDS011;167;47.558;7.602;2023-12-20T02:25:20;6.03;;;5.53;;
357;SDS011;167;47.558;7.602;2023-12-20T02:27:46;6.50;;;5.80;;
357;SDS011;167;47.558;7.602;2023-12-20T02:30:13;6.53;;;6.03;;
357;SDS011;167;47.558;7.602;2023-12-20T02:32:38;6.03;;;5.53;;
357;SDS011;167;47.558;7.602;2023-12-20T02:35:05;5.90;;;5.50;;
357;SDS011;167;47.558;7.602;2023-12-20T02:37:32;6.30;;;5.90;;
357;SDS011;167;47.558;7.602;2023-12-20T02:39:58;6.63;;;6.13;;
357;SDS011;167;47.558;7.602;2023-12-20T02:42:24;6.50;;;5.97;;
357;SDS011;167;47.558;7.602;2023-12-20T02:44:50;5.90;;;5.40;;
357;SDS011;167;47.558;7.602;2023-12-20T02:47:16;8.80;;;8.00;;
357;SDS011;167;47.558;7.602;2023-12-20T02:49:42;7.37;;;6.77;;
357;SDS011;167;47.558;7.602;2023-12-20T02:52:08;7.73;;;7.07;;
357;SDS011;167;47.558;7.602;2023-12-20T02:54:34;7.33;;;6.67;;
357;SDS011;167;47.558;7.602;2023-12-20T02:57:00;6.10;;;5.60;;
357;SDS011;167;47.558;7.602;2023-12-20T02:59:26;6.33;;;5.73;;
357;SDS011;167;47.558;7.602;2023-12-20T03:01:52;6.50;;;5.90;;
357;SDS011;167;47.558;7.602;2023-12-20T03:04:17;5.63;;;5.13;;
357;SDS011;167;47.558;7.602;2023-12-20T03:06:43;5.70;;;5.20;;
357;SDS011;167;47.558;7.602;2023-12-20T03:09:09;6.77;;;6.30;;
357;SDS011;167;47.558;7.602;2023-12-20T03:11:35;6.10;;;5.70;;
357;SDS011;167;47.558;7.602;2023-12-20T03:14:01;6.07;;;5.57;;
357;SDS011;167;47.558;7.602;2023-12-20T03:16:27;5.97;;;5.47;;
357;SDS011;167;47.558;7.602;2023-12-20T03:18:53;6.70;;;6.07;;
357;SDS011;167;47.558;7.602;2023-12-20T03:21:19;7.53;;;6.90;;
357;SDS011;167;47.558;7.602;2023-12-20T03:23:45;7.37;;;6.70;;
357;SDS011;167;47.558;7.602;2023-12-20T03:26:11;6.47;;;5.97;;
357;SDS011;167;47.558;7.602;2023-12-20T03:28:37;7.67;;;7.07;;
357;SDS011;167;47.558;7.602;2023-12-20T03:31:03;6.37;;;5.87;;
357;SDS011;167;47.558;7.602;2023-12-20T03:33:29;6.90;;;6.40;;
357;SDS011;167;47.558;7.602;2023-12-20T03:35:56;6.20;;;5.80;;
357;SDS011;167;47.558;7.602;2023-12-20T03:38:22;7.57;;;6.97;;
357;SDS011;167;47.558;7.602;2023-12-20T03:40:51;7.40;;;6.80;;
357;SDS011;167;47.558;7.602;2023-12-20T03:43:17;7.03;;;6.20;;
357;SDS011;167;47.558;7.602;2023-12-20T03:45:43;7.00;;;6.40;;
357;SDS011;167;47.558;7.602;2023-12-20T03:48:09;8.27;;;7.10;;
357;SDS011;167;47.558;7.602;2023-12-20T03:50:35;7.20;;;6.47;;
357;SDS011;167;47.558;7.602;2023-12-20T03:53:01;6.70;;;6.00;;
357;SDS011;167;47.558;7.602;2023-12-20T03:55:28;8.47;;;7.47;;
357;SDS011;167;47.558;7.602;2023-12-20T03:57:54;6.60;;;6.10;;
357;SDS011;167;47.558;7.602;2023-12-20T04:00:20;6.40;;;5.90;;
357;SDS011;167;47.558;7.602;2023-12-20T04:02:46;6.20;;;5.70;;
357;SDS011;167;47.558;7.602;2023-12-20T04:05:12;6.73;;;6.10;;
357;SDS011;167;47.558;7.602;2023-12-20T04:07:38;7.30;;;6.47;;
357;SDS011;167;47.558;7.602;2023-12-20T04:10:04;7.30;;;6.57;;
357;SDS011;167;47.558;7.602;2023-12-20T04:12:32;7.73;;;7.03;;
357;SDS011;167;47.558;7.602;2023-12-20T04:14:58;7.40;;;6.80;;
357;SDS011;167;47.558;7.602;2023-12-20T04:17:24;5.67;;;5.27;;
357;SDS011;167;47.558;7.602;2023-12-20T04:19:53;6.93;;;6.33;;
357;SDS011;167;47.558;7.602;2023-12-20T04:22:19;6.20;;;5.70;;
357;SDS011;167;47.558;7.602;2023-12-20T04:24:45;7.33;;;6.83;;
357;SDS011;167;47.558;7.602;2023-12-20T04:27:11;6.70;;;6.27;;
357;SDS011;167;47.558;7.602;2023-12-20T04:29:37;6.30;;;5.80;;
357;SDS011;167;47.558;7.602;2023-12-20T04:32:04;6.43;;;5.70;;
357;SDS011;167;47.558;7.602;2023-12-20T04:34:30;5.23;;;4.83;;
357;SDS011;167;47.558;7.602;2023-12-20T04:36:56;5.63;;;5.23;;
357;SDS011;167;47.558;7.602;2023-12-20T04:39:22;5.70;;;5.07;;
357;SDS011;167;47.558;7.602;2023-12-20T04:41:48;5.40;;;5.00;;
357;SDS011;167;47.558;7.602;2023-12-20T04:44:15;4.90;;;4.50;;
357;SDS011;167;47.558;7.602;2023-12-20T04:46:41;4.67;;;4.37;;
357;SDS011;167;47.558;7.602;2023-12-20T04:49:07;4.97;;;4.47;;
357;SDS011;167;47.558;7.602;2023-12-20T04:51:33;4.93;;;4.40;;
357;SDS011;167;47.558;7.602;2023-12-20T04:53:59;5.63;;;5.23;;
357;SDS011;167;47.558;7.602;2023-12-20T04:56:25;4.57;;;4.27;;
357;SDS011;167;47.558;7.602;2023-12-20T04:58:51;4.70;;;4.37;;
357;SDS011;167;47.558;7.602;2023-12-20T05:01:17;6.17;;;5.57;;
357;SDS011;167;47.558;7.602;2023-12-20T05:03:43;6.00;;;5.47;;
357;SDS011;167;47.558;7.602;2023-12-20T05:06:10;6.03;;;5.30;;
357;SDS011;167;47.558;7.602;2023-12-20T05:08:36;7.77;;;7.07;;
357;SDS011;167;47.558;7.602;2023-12-20T05:11:02;6.53;;;6.00;;
357;SDS011;167;47.558;7.602;2023-12-20T05:13:28;6.27;;;5.77;;
357;SDS011;167;47.558;7.602;2023-12-20T05:15:54;7.03;;;6.43;;
357;SDS011;167;47.558;7.602;2023-12-20T05:18:20;6.23;;;5.73;;
357;SDS011;167;47.558;7.602;2023-12-20T05:20:46;6.70;;;6.13;;
357;SDS011;167;47.558;7.602;2023-12-20T05:23:12;7.50;;;6.43;;
357;SDS011;167;47.558;7.602;2023-12-20T05:25:39;8.40;;;6.30;;
357;SDS011;167;47.558;7.602;2023-12-20T05:28:05;10.47;;;6.50;;
357;SDS011;167;47.558;7.602;2023-12-20T05:30:31;6.87;;;6.27;;
357;SDS011;167;47.558;7.602;2023-12-20T05:32:57;7.07;;;6.37;;
357;SDS011;167;47.558;7.602;2023-12-20T05:35:23;6.97;;;5.50;;
357;SDS011;167;47.558;7.602;2023-12-20T05:37:49;6.13;;;5.60;;
357;SDS011;167;47.558;7.602;2023-12-20T05:40:15;6.23;;;5.80;;
357;SDS011;167;47.558;7.602;2023-12-20T05:42:41;5.90;;;5.03;;
357;SDS011;167;47.558;7.602;2023-12-20T05:45:08;4.73;;;4.43;;
357;SDS011;167;47.558;7.602;2023-12-20T05:47:35;5.87;;;5.20;;
357;SDS011;167;47.558;7.602;2023-12-20T05:50:02;5.50;;;5.10;;
357;SDS011;167;47.558;7.602;2023-12-20T05:52:29;6.00;;;5.43;;
357;SDS011;167;47.558;7.602;2023-12-20T05:54:55;5.67;;;5.27;;
357;SDS011;167;47.558;7.602;2023-12-20T05:57:22;4.30;;;3.90;;
357;SDS011;167;47.558;7.602;2023-12-20T05:59:48;3.90;;;3.60;;
357;SDS011;167;47.558;7.602;2023-12-20T06:02:14;3.80;;;3.50;;
357;SDS011;167;47.558;7.602;2023-12-20T06:04:43;3.10;;;2.80;;
357;SDS011;167;47.558;7.602;2023-12-20T06:07:12;2.70;;;2.53;;
357;SDS011;167;47.558;7.602;2023-12-20T06:09:38;1.47;;;1.47;;
357;SDS011;167;47.558;7.602;2023-12-20T06:12:05;0.90;;;0.90;;
357;SDS011;167;47.558;7.602;2023-12-20T06:14:31;0.70;;;0.70;;
357;SDS011;167;47.558;7.602;2023-12-20T06:16:57;0.80;;;0.80;;
357;SDS011;167;47.558;7.602;2023-12-20T06:19:23;2.30;;;0.50;;
357;SDS011;167;47.558;7.602;2023-12-20T06:21:49;0.67;;;0.67;;
357;SDS011;167;47.558;7.602;2023-12-20T06:24:15;0.60;;;0.60;;
357;SDS011;167;47.558;7.602;2023-12-20T06:26:41;0.40;;;0.40;;
357;SDS011;167;47.558;7.602;2023-12-20T06:29:07;0.47;;;0.47;;
357;SDS011;167;47.558;7.602;2023-12-20T06:31:33;0.40;;;0.40;;
357;SDS011;167;47.558;7.602;2023-12-20T06:33:59;0.53;;;0.53;;
357;SDS011;167;47.558;7.602;2023-12-20T06:36:28;0.60;;;0.60;;
357;SDS011;167;47.558;7.602;2023-12-20T06:38:54;0.50;;;0.50;;
357;SDS011;167;47.558;7.602;2023-12-20T06:41:20;0.90;;;0.90;;
357;SDS011;167;47.558;7.602;2023-12-20T06:43:46;0.70;;;0.70;;
357;SDS011;167;47.558;7.602;2023-12-20T06:46:12;0.50;;;0.50;;
357;SDS011;167;47.558;7.602;2023-12-20T06:48:38;0.40;;;0.40;;
357;SDS011;167;47.558;7.602;2023-12-20T06:51:05;1.27;;;1.00;;
357;SDS011;167;47.558;7.602;2023-12-20T06:53:31;0.87;;;0.73;;
357;SDS011;167;47.558;7.602;2023-12-20T06:55:57;0.57;;;0.57;;
357;SDS011;167;47.558;7.602;2023-12-20T06:58:23;2.33;;;1.63;;
357;SDS011;167;47.558;7.602;2023-12-20T07:00:50;0.50;;;0.50;;
357;SDS011;167;47.558;7.602;2023-12-20T07:03:16;0.50;;;0.50;;
357;SDS011;167;47.558;7.602;2023-12-20T07:05:42;0.57;;;0.57;;
357;SDS011;167;47.558;7.602;2023-12-20T07:08:08;0.70;;;0.70;;
357;SDS011;167;47.558;7.602;2023-12-20T07:10:35;1.37;;;1.10;;
357;SDS011;167;47.558;7.602;2023-12-20T07:13:01;2.20;;;0.60;;
357;SDS011;167;47.558;7.602;2023-12-20T07:15:28;0.70;;;0.70;;
357;SDS011;167;47.558;7.602;2023-12-20T07:17:54;0.57;;;0.57;;
357;SDS011;167;47.558;7.602;2023-12-20T07:20:20;0.50;;;0.50;;
357;SDS011;167;47.558;7.602;2023-12-20T07:22:46;0.87;;;0.87;;
357;SDS011;167;47.558;7.602;2023-12-20T07:25:12;0.60;;;0.60;;
357;SDS011;167;47.558;7.602;2023-12-20T07:27:38;0.73;;;0.73;;
357;SDS011;167;47.558;7.602;2023-12-20T07:30:04;1.70;;;0.50;;
357;SDS011;167;47.558;7.602;2023-12-20T07:32:30;0.87;;;0.87;;
357;SDS011;167;47.558;7.602;2023-12-20T07:34:57;0.80;;;0.80;;
357;SDS011;167;47.558;7.602;2023-12-20T07:37:23;0.77;;;0.77;;
357;SDS011;167;47.558;7.602;2023-12-20T07:39:49;0.73;;;0.73;;
357;SDS011;167;47.558;7.602;2023-12-20T07:42:15;1.03;;;1.03;;
357;SDS011;167;47.558;7.602;2023-12-20T07:44:41;0.70;;;0.70;;
357;SDS011;167;47.558;7.602;2023-12-20T07:47:07;0.87;;;0.87;;
357;SDS011;167;47.558;7.602;2023-12-20T07:49:33;0.80;;;0.80;;
357;SDS011;167;47.558;7.602;2023-12-20T07:51:59;0.70;;;0.70;;
357;SDS011;167;47.558;7.602;2023-12-20T07:54:25;0.83;;;0.83;;
357;SDS011;167;47.558;7.602;2023-12-20T07:56:51;2.03;;;0.90;;
357;SDS011;167;47.558;7.602;2023-12-20T07:59:17;0.90;;;0.90;;
357;SDS011;167;47.558;7.602;2023-12-20T08:01:43;1.77;;;1.70;;
357;SDS011;167;47.558;7.602;2023-12-20T08:04:09;0.80;;;0.80;;
357;SDS011;167;47.558;7.602;2023-12-20T08:06:35;0.80;;;0.80;;
357;SDS011;167;47.558;7.602;2023-12-20T08:09:01;0.80;;;0.80;;
357;SDS011;167;47.558;7.602;2023-12-20T08:11:27;0.60;;;0.60;;
357;SDS011;167;47.558;7.602;2023-12-20T08:13:53;0.87;;;0.87;;
357;SDS011;167;47.558;7.602;2023-12-20T08:16:19;3.17;;;2.90;;
357;SDS011;167;47.558;7.602;2023-12-20T08:18:45;0.80;;;0.80;;
357;SDS011;167;47.558;7.602;2023-12-20T08:21:11;0.73;;;0.73;;
357;SDS011;167;47.558;7.602;2023-12-20T08:23:37;0.80;;;0.80;;
357;SDS011;167;47.558;7.602;2023-12-20T08:26:07;0.80;;;0.80;;
357;SDS011;167;47.558;7.602;2023-12-20T08:28:33;0.80;;;0.80;;
357;SDS011;167;47.558;7.602;2023-12-20T08:30:59;1.03;;;1.03;;
357;SDS011;167;47.558;7.602;2023-12-20T08:33:25;1.03;;;1.00;;
357;SDS011;167;47.558;7.602;2023-12-20T08:35:51;1.30;;;1.20;;
357;SDS011;167;47.558;7.602;2023-12-20T08:38:17;2.87;;;2.70;;
357;SDS011;167;47.558;7.602;2023-12-20T08:40:43;1.37;;;1.37;;
357;SDS011;167;47.558;7.602;2023-12-20T08:43:09;0.80;;;0.80;;
357;SDS011;167;47.558;7.602;2023-12-20T08:45:35;0.90;;;0.90;;
357;SDS011;167;47.558;7.602;2023-12-20T08:48:02;1.07;;;1.07;;
357;SDS011;167;47.558;7.602;2023-12-20T08:50:28;0.80;;;0.80;;
357;SDS011;167;47.558;7.602;2023-12-20T08:52:54;1.10;;;1.10;;
357;SDS011;167;47.558;7.602;2023-12-20T08:55:20;0.60;;;0.60;;
357;SDS011;167;47.558;7.602;2023-12-20T08:57:46;0.80;;;0.80;;
357;SDS011;167;47.558;7.602;2023-12-20T09:00:12;1.07;;;1.07;;
357;SDS011;167;47.558;7.602;2023-12-20T09:02:38;2.00;;;1.90;;
357;SDS011;167;47.558;7.602;2023-12-20T09:05:05;1.00;;;1.00;;
357;SDS011;167;47.558;7.602;2023-12-20T09:07:31;1.40;;;1.30;;
357;SDS011;167;47.558;7.602;2023-12-20T09:09:57;0.83;;;0.83;;
357;SDS011;167;47.558;7.602;2023-12-20T09:12:23;1.07;;;0.97;;
357;SDS011;167;47.558;7.602;2023-12-20T09:14:50;1.27;;;1.17;;
357;SDS011;167;47.558;7.602;2023-12-20T09:17:16;1.00;;;1.00;;
357;SDS011;167;47.558;7.602;2023-12-20T09:19:43;0.93;;;0.93;;
357;SDS011;167;47.558;7.602;2023-12-20T09:22:09;1.00;;;1.00;;
357;SDS011;167;47.558;7.602;2023-12-20T09:24:35;1.20;;;1.10;;
357;SDS011;167;47.558;7.602;2023-12-20T09:27:01;1.20;;;1.20;;
357;SDS011;167;47.558;7.602;2023-12-20T09:29:27;2.60;;;1.40;;
357;SDS011;167;47.558;7.602;2023-12-20T09:31:53;1.27;;;1.27;;
357;SDS011;167;47.558;7.602;2023-12-20T09:34:19;1.10;;;1.00;;
357;SDS011;167;47.558;7.602;2023-12-20T09:36:46;1.70;;;1.60;;
357;SDS011;167;47.558;7.602;2023-12-20T09:39:15;1.50;;;1.40;;
357;SDS011;167;47.558;7.602;2023-12-20T09:41:44;1.57;;;1.47;;
357;SDS011;167;47.558;7.602;2023-12-20T09:44:15;1.53;;;1.40;;
357;SDS011;167;47.558;7.602;2023-12-20T09:46:43;1.40;;;1.40;;
357;SDS011;167;47.558;7.602;2023-12-20T09:49:10;1.17;;;1.17;;
357;SDS011;167;47.558;7.602;2023-12-20T09:51:37;1.00;;;1.00;;
357;SDS011;167;47.558;7.602;2023-12-20T09:54:03;1.87;;;1.30;;
357;SDS011;167;47.558;7.602;2023-12-20T09:56:29;1.53;;;0.97;;
357;SDS011;167;47.558;7.602;2023-12-20T09:58:56;1.50;;;1.40;;
357;SDS011;167;47.558;7.602;2023-12-20T10:01:22;1.47;;;1.37;;
357;SDS011;167;47.558;7.602;2023-12-20T10:03:48;1.30;;;1.20;;
357;SDS011;167;47.558;7.602;2023-12-20T10:06:16;1.70;;;1.60;;
357;SDS011;167;47.558;7.602;2023-12-20T10:08:42;1.60;;;1.50;;
357;SDS011;167;47.558;7.602;2023-12-20T10:11:08;1.43;;;1.43;;
357;SDS011;167;47.558;7.602;2023-12-20T10:13:38;1.90;;;1.80;;
357;SDS011;167;47.558;7.602;2023-12-20T10:16:05;3.03;;;1.87;;
357;SDS011;167;47.558;7.602;2023-12-20T10:18:32;1.53;;;1.53;;
357;SDS011;167;47.558;7.602;2023-12-20T10:20:58;2.73;;;1.60;;
357;SDS011;167;47.558;7.602;2023-12-20T10:23:24;1.67;;;1.57;;
357;SDS011;167;47.558;7.602;2023-12-20T10:25:56;1.80;;;1.70;;
357;SDS011;167;47.558;7.602;2023-12-20T10:28:25;1.90;;;1.47;;
357;SDS011;167;47.558;7.602;2023-12-20T10:30:54;1.70;;;1.60;;
357;SDS011;167;47.558;7.602;2023-12-20T10:33:24;1.77;;;1.67;;
357;SDS011;167;47.558;7.602;2023-12-20T10:35:50;1.53;;;1.40;;
357;SDS011;167;47.558;7.602;2023-12-20T10:38:17;1.93;;;1.30;;
357;SDS011;167;47.558;7.602;2023-12-20T10:40:45;1.40;;;1.30;;
357;SDS011;167;47.558;7.602;2023-12-20T10:43:11;1.97;;;1.60;;
357;SDS011;167;47.558;7.602;2023-12-20T10:45:38;1.17;;;1.03;;
357;SDS011;167;47.558;7.602;2023-12-20T10:48:04;1.00;;;1.00;;
357;SDS011;167;47.558;7.602;2023-12-20T10:50:30;1.30;;;1.23;;
357;SDS011;167;47.558;7.602;2023-12-20T10:52:57;1.20;;;1.20;;
357;SDS011;167;47.558;7.602;2023-12-20T10:55:24;1.30;;;1.13;;
357;SDS011;167;47.558;7.602;2023-12-20T10:58:06;1.90;;;1.50;;
357;SDS011;167;47.558;7.602;2023-12-20T11:00:32;1.17;;;1.17;;
357;SDS011;167;47.558;7.602;2023-12-20T11:03:01;1.40;;;1.20;;
357;SDS011;167;47.558;7.602;2023-12-20T11:08:17;1.17;;;1.10;;
357;SDS011;167;47.558;7.602;2023-12-20T11:10:49;1.37;;;1.30;;
357;SDS011;167;47.558;7.602;2023-12-20T11:13:20;1.60;;;1.50;;
357;SDS011;167;47.558;7.602;2023-12-20T11:15:47;2.27;;;1.20;;
357;SDS011;167;47.558;7.602;2023-12-20T11:18:13;1.60;;;1.23;;
357;SDS011;167;47.558;7.602;2023-12-20T11:20:40;1.33;;;1.00;;
357;SDS011;167;47.558;7.602;2023-12-20T11:23:10;1.43;;;1.03;;
357;SDS011;167;47.558;7.602;2023-12-20T11:28:34;1.20;;;1.20;;
357;SDS011;167;47.558;7.602;2023-12-20T11:31:01;0.90;;;0.90;;
357;SDS011;167;47.558;7.602;2023-12-20T11:33:32;1.20;;;1.20;;
357;SDS011;167;47.558;7.602;2023-12-20T11:36:01;1.83;;;1.60;;
357;SDS011;167;47.558;7.602;2023-12-20T11:38:27;1.60;;;1.50;;
357;SDS011;167;47.558;7.602;2023-12-20T11:40:54;1.33;;;1.23;;
357;SDS011;167;47.558;7.602;2023-12-20T11:43:31;1.73;;;1.40;;
357;SDS011;167;47.558;7.602;2023-12-20T11:46:06;1.70;;;1.60;;
357;SDS011;167;47.558;7.602;2023-12-20T11:48:39;1.80;;;1.30;;
357;SDS011;167;47.558;7.602;2023-12-20T11:51:09;1.00;;;1.00;;
357;SDS011;167;47.558;7.602;2023-12-20T11:53:35;1.90;;;1.80;;
357;SDS011;167;47.558;7.602;2023-12-20T11:56:02;1.50;;;1.40;;
357;SDS011;167;47.558;7.602;2023-12-20T11:58:28;1.67;;;1.30;;
357;SDS011;167;47.558;7.602;2023-12-20T12:00:55;1.43;;;1.33;;
357;SDS011;167;47.558;7.602;2023-12-20T12:03:21;1.60;;;1.50;;
357;SDS011;167;47.558;7.602;2023-12-20T12:05:49;1.70;;;1.60;;
357;SDS011;167;47.558;7.602;2023-12-20T12:08:15;2.70;;;1.40;;
357;SDS011;167;47.558;7.602;2023-12-20T12:10:41;1.73;;;1.60;;
357;SDS011;167;47.558;7.602;2023-12-20T12:13:07;1.13;;;1.13;;
357;SDS011;167;47.558;7.602;2023-12-20T12:15:33;1.90;;;1.20;;
357;SDS011;167;47.558;7.602;2023-12-20T12:17:59;2.33;;;0.87;;
357;SDS011;167;47.558;7.602;2023-12-20T12:20:25;1.37;;;1.00;;
357;SDS011;167;47.558;7.602;2023-12-20T12:23:00;1.23;;;1.23;;
357;SDS011;167;47.558;7.602;2023-12-20T12:25:26;1.30;;;1.20;;
357;SDS011;167;47.558;7.602;2023-12-20T12:27:52;1.40;;;1.20;;
357;SDS011;167;47.558;7.602;2023-12-20T12:30:18;2.23;;;1.13;;
357;SDS011;167;47.558;7.602;2023-12-20T12:32:44;3.40;;;1.80;;
357;SDS011;167;47.558;7.602;2023-12-20T12:35:10;1.70;;;1.30;;
357;SDS011;167;47.558;7.602;2023-12-20T12:37:37;0.97;;;0.97;;
357;SDS011;167;47.558;7.602;2023-12-20T12:40:05;1.10;;;1.10;;
357;SDS011;167;47.558;7.602;2023-12-20T12:42:31;1.50;;;1.40;;
357;SDS011;167;47.558;7.602;2023-12-20T12:44:57;1.30;;;1.20;;
357;SDS011;167;47.558;7.602;2023-12-20T12:47:23;1.57;;;1.47;;
357;SDS011;167;47.558;7.602;2023-12-20T12:49:50;1.23;;;1.10;;
357;SDS011;167;47.558;7.602;2023-12-20T12:52:18;1.53;;;1.43;;
357;SDS011;167;47.558;7.602;2023-12-20T12:54:44;3.80;;;1.47;;
357;SDS011;167;47.558;7.602;2023-12-20T12:57:10;2.70;;;1.40;;
357;SDS011;167;47.558;7.602;2023-12-20T12:59:36;2.40;;;1.50;;
357;SDS011;167;47.558;7.602;2023-12-20T13:02:02;2.73;;;1.27;;
357;SDS011;167;47.558;7.602;2023-12-20T13:04:28;1.30;;;1.20;;
357;SDS011;167;47.558;7.602;2023-12-20T13:06:54;2.10;;;1.30;;
357;SDS011;167;47.558;7.602;2023-12-20T13:09:22;1.93;;;1.00;;
357;SDS011;167;47.558;7.602;2023-12-20T13:11:48;1.50;;;1.40;;
357;SDS011;167;47.558;7.602;2023-12-20T13:14:14;2.20;;;1.00;;
357;SDS011;167;47.558;7.602;2023-12-20T13:16:41;2.30;;;1.20;;
357;SDS011;167;47.558;7.602;2023-12-20T13:19:08;5.47;;;1.73;;
357;SDS011;167;47.558;7.602;2023-12-20T13:21:35;1.33;;;1.17;;
357;SDS011;167;47.558;7.602;2023-12-20T13:24:01;2.37;;;1.27;;
357;SDS011;167;47.558;7.602;2023-12-20T13:26:27;2.00;;;1.30;;
357;SDS011;167;47.558;7.602;2023-12-20T13:28:53;3.90;;;1.23;;
357;SDS011;167;47.558;7.602;2023-12-20T13:31:19;1.20;;;1.10;;
357;SDS011;167;47.558;7.602;2023-12-20T13:33:46;1.13;;;1.10;;
357;SDS011;167;47.558;7.602;2023-12-20T13:36:12;2.77;;;1.50;;
357;SDS011;167;47.558;7.602;2023-12-20T13:38:38;1.00;;;0.90;;
357;SDS011;167;47.558;7.602;2023-12-20T13:41:04;2.50;;;1.20;;
357;SDS011;167;47.558;7.602;2023-12-20T13:43:31;1.40;;;1.30;;
357;SDS011;167;47.558;7.602;2023-12-20T13:45:57;1.80;;;1.17;;
357;SDS011;167;47.558;7.602;2023-12-20T13:48:23;4.77;;;1.60;;
357;SDS011;167;47.558;7.602;2023-12-20T13:50:49;1.33;;;1.23;;
357;SDS011;167;47.558;7.602;2023-12-20T13:53:15;2.07;;;1.70;;
357;SDS011;167;47.558;7.602;2023-12-20T13:55:41;1.43;;;0.97;;
357;SDS011;167;47.558;7.602;2023-12-20T13:58:07;2.83;;;1.70;;
357;SDS011;167;47.558;7.602;2023-12-20T14:00:35;5.50;;;3.67;;
357;SDS011;167;47.558;7.602;2023-12-20T14:03:01;2.83;;;2.63;;
357;SDS011;167;47.558;7.602;2023-12-20T14:05:27;1.50;;;1.40;;
357;SDS011;167;47.558;7.602;2023-12-20T14:07:53;1.33;;;1.20;;
357;SDS011;167;47.558;7.602;2023-12-20T14:10:22;1.70;;;1.57;;
357;SDS011;167;47.558;7.602;2023-12-20T14:12:48;2.30;;;2.10;;
357;SDS011;167;47.558;7.602;2023-12-20T14:15:14;0.93;;;0.83;;
357;SDS011;167;47.558;7.602;2023-12-20T14:17:40;3.47;;;1.70;;
357;SDS011;167;47.558;7.602;2023-12-20T14:20:07;3.63;;;1.73;;
357;SDS011;167;47.558;7.602;2023-12-20T14:22:34;1.87;;;1.77;;
357;SDS011;167;47.558;7.602;2023-12-20T14:25:01;3.73;;;1.10;;
357;SDS011;167;47.558;7.602;2023-12-20T14:27:27;4.30;;;1.33;;
357;SDS011;167;47.558;7.602;2023-12-20T14:29:54;0.90;;;0.90;;
357;SDS011;167;47.558;7.602;2023-12-20T14:32:20;4.50;;;1.00;;
357;SDS011;167;47.558;7.602;2023-12-20T14:34:46;2.37;;;2.27;;
357;SDS011;167;47.558;7.602;2023-12-20T14:37:12;2.47;;;1.50;;
357;SDS011;167;47.558;7.602;2023-12-20T14:39:39;1.13;;;1.00;;
357;SDS011;167;47.558;7.602;2023-12-20T14:42:07;1.90;;;1.13;;
357;SDS011;167;47.558;7.602;2023-12-20T14:44:37;1.70;;;1.40;;
357;SDS011;167;47.558;7.602;2023-12-20T14:47:03;1.90;;;1.60;;
357;SDS011;167;47.558;7.602;2023-12-20T14:49:29;1.10;;;1.00;;
357;SDS011;167;47.558;7.602;2023-12-20T14:51:55;4.77;;;1.73;;
357;SDS011;167;47.558;7.602;2023-12-20T14:54:21;2.80;;;1.37;;
357;SDS011;167;47.558;7.602;2023-12-20T14:56:47;1.27;;;1.13;;
357;SDS011;167;47.558;7.602;2023-12-20T14:59:13;4.07;;;1.07;;
357;SDS011;167;47.558;7.602;2023-12-20T15:01:39;1.93;;;1.73;;
357;SDS011;167;47.558;7.602;2023-12-20T15:04:06;3.93;;;1.67;;
357;SDS011;167;47.558;7.602;2023-12-20T15:06:32;1.00;;;1.00;;
357;SDS011;167;47.558;7.602;2023-12-20T15:08:58;1.20;;;1.10;;
357;SDS011;167;47.558;7.602;2023-12-20T15:11:25;1.60;;;1.50;;
357;SDS011;167;47.558;7.602;2023-12-20T15:13:51;1.93;;;1.37;;
357;SDS011;167;47.558;7.602;2023-12-20T15:16:24;1.90;;;1.20;;
357;SDS011;167;47.558;7.602;2023-12-20T15:18:50;1.53;;;1.13;;
357;SDS011;167;47.558;7.602;2023-12-20T15:21:16;1.07;;;1.00;;
357;SDS011;167;47.558;7.602;2023-12-20T15:23:43;3.33;;;1.80;;
357;SDS011;167;47.558;7.602;2023-12-20T15:26:18;3.40;;;3.20;;
357;SDS011;167;47.558;7.602;2023-12-20T15:28:44;1.40;;;1.30;;
357;SDS011;167;47.558;7.602;2023-12-20T15:31:10;3.33;;;2.00;;
357;SDS011;167;47.558;7.602;2023-12-20T15:33:37;3.07;;;1.80;;
357;SDS011;167;47.558;7.602;2023-12-20T15:36:04;1.67;;;1.47;;
357;SDS011;167;47.558;7.602;2023-12-20T15:38:30;2.37;;;1.70;;
357;SDS011;167;47.558;7.602;2023-12-20T15:40:56;2.53;;;1.40;;
357;SDS011;167;47.558;7.602;2023-12-20T15:43:22;1.70;;;1.03;;
357;SDS011;167;47.558;7.602;2023-12-20T15:45:48;1.00;;;0.90;;